Time;durP1;ratioP1;P1;durP2;ratioP2;P2;SDS_P1;SDS_P2;PMS_P1;PMS_P2;Temp;Humidity;BMP_temperature;BMP_pressure;BME280_temperature;BME280_humidity;BME280_pressure;Samples;Min_cycle;Max_cycle;Signal;HPM_P1;HPM_P2
2023/03/28 00:01:06;;;;;;;1.10;0.60;;;2.40;93.10;;;;;;5000817;28;20100;-88
2023/03/28 00:03:35;;;;;;;1.58;0.70;;;2.40;93.20;;;;;;5000345;28;20077;-88
2023/03/28 00:06:04;;;;;;;0.70;0.20;;;2.30;93.20;;;;;;4984521;28;20058;-87
2023/03/28 00:08:31;;;;;;;0.63;0.20;;;2.30;93.20;;;;;;5004504;28;20038;-87
2023/03/28 00:11:11;;;;;;;1.40;0.43;;;2.30;93.20;;;;;;5000898;28;20475;-87
2023/03/28 00:13:38;;;;;;;0.93;0.30;;;2.20;93.30;;;;;;5000140;28;20494;-87
2023/03/28 00:16:08;;;;;;;1.73;0.30;;;2.20;93.30;;;;;;4968404;28;20141;-87
2023/03/28 00:18:37;;;;;;;0.30;0.10;;;2.20;93.40;;;;;;5013326;28;20042;-87
2023/03/28 00:21:22;;;;;;;0.30;0.10;;;2.10;93.40;;;;;;4980036;28;20071;-87
2023/03/28 00:23:52;;;;;;;1.30;0.20;;;2.10;93.50;;;;;;4987344;28;20038;-87
2023/03/28 00:26:23;;;;;;;0.43;0.10;;;2.00;93.60;;;;;;5009460;28;20080;-87
2023/03/28 00:28:51;;;;;;;0.93;0.10;;;2.00;93.70;;;;;;5000076;28;20060;-87
2023/03/28 00:31:18;;;;;;;1.13;0.30;;;2.00;93.70;;;;;;4964409;28;20065;-87
2023/03/28 00:33:46;;;;;;;0.52;0.15;;;2.00;93.70;;;;;;4952641;28;20565;-87
2023/03/28 00:36:21;;;;;;;0.67;0.20;;;2.00;93.70;;;;;;4968144;28;20522;-87
2023/03/28 00:38:50;;;;;;;2.83;0.20;;;2.00;93.80;;;;;;4983514;28;20442;-87
2023/03/28 00:41:20;;;;;;;1.80;0.30;;;1.90;93.70;;;;;;4964719;28;20105;-87
2023/03/28 00:43:53;;;;;;;1.93;0.30;;;1.90;93.80;;;;;;5003130;28;20093;-87
2023/03/28 00:46:40;;;;;;;0.83;0.30;;;2.00;93.80;;;;;;5022222;28;20092;-87
2023/03/28 00:49:31;;;;;;;3.43;0.40;;;1.90;93.80;;;;;;5018151;28;20045;-86
2023/03/28 00:52:01;;;;;;;1.03;0.37;;;2.00;93.90;;;;;;5004510;28;20490;-86
2023/03/28 00:54:33;;;;;;;2.07;0.30;;;1.90;93.80;;;;;;5000066;28;20433;-87
2023/03/28 00:57:01;;;;;;;1.50;0.40;;;1.90;93.80;;;;;;4996778;28;20057;-86
2023/03/28 00:59:33;;;;;;;1.65;0.45;;;1.90;93.90;;;;;;5005811;28;20056;-87
2023/03/28 01:02:00;;;;;;;2.65;0.40;;;1.90;93.90;;;;;;4999692;28;20046;-87
2023/03/28 01:04:35;;;;;;;3.77;0.63;;;1.90;94.00;;;;;;4953602;28;20101;-85
2023/03/28 01:07:03;;;;;;;2.20;0.43;;;1.90;94.00;;;;;;5000046;28;20046;-88
2023/03/28 01:09:35;;;;;;;1.25;0.40;;;1.90;94.10;;;;;;5003265;28;20042;-87
2023/03/28 01:12:02;;;;;;;2.67;0.40;;;1.90;94.00;;;;;;4971746;28;20050;-87
2023/03/28 01:14:29;;;;;;;2.57;0.70;;;1.90;94.00;;;;;;4982297;28;20046;-87
2023/03/28 01:16:59;;;;;;;2.57;0.43;;;1.90;94.10;;;;;;4968113;28;20140;-87
2023/03/28 01:19:37;;;;;;;2.80;0.43;;;1.90;94.10;;;;;;5013437;28;20461;-88
2023/03/28 01:22:11;;;;;;;2.60;0.30;;;1.80;94.10;;;;;;4999756;28;20042;-87
2023/03/28 01:24:56;;;;;;;2.23;0.23;;;1.80;94.20;;;;;;4999605;28;20545;-87
2023/03/28 01:28:15;;;;;;;0.50;0.20;;;1.80;94.20;;;;;;5000783;28;20045;-87
2023/03/28 01:31:07;;;;;;;0.70;0.30;;;1.70;94.30;;;;;;4999947;28;20050;-87
2023/03/28 01:33:58;;;;;;;0.77;0.20;;;1.70;94.30;;;;;;5003870;28;20200;-88
2023/03/28 01:36:45;;;;;;;0.33;0.20;;;1.60;94.40;;;;;;4999216;28;20077;-87
2023/03/28 01:39:17;;;;;;;1.73;0.40;;;1.60;94.40;;;;;;4999515;28;20077;-87
2023/03/28 01:42:17;;;;;;;1.90;0.30;;;1.60;94.40;;;;;;4999002;28;20081;-87
2023/03/28 01:45:05;;;;;;;0.90;0.20;;;1.60;94.50;;;;;;4998872;28;20045;-87
2023/03/28 01:47:47;;;;;;;2.50;0.30;;;1.50;94.50;;;;;;4971529;28;20077;-87
2023/03/28 01:50:18;;;;;;;1.37;0.37;;;1.50;94.60;;;;;;5004592;28;20522;-87
2023/03/28 01:52:51;;;;;;;1.60;0.50;;;1.50;94.60;;;;;;5004954;28;20054;-87
2023/03/28 01:55:26;;;;;;;2.23;0.50;;;1.50;94.80;;;;;;4998990;28;20046;-86
2023/03/28 01:58:21;;;;;;;2.17;0.47;;;1.50;94.80;;;;;;4999463;28;20046;-87
2023/03/28 02:01:06;;;;;;;3.20;0.57;;;1.50;94.70;;;;;;4985071;28;20046;-80
2023/03/28 02:03:39;;;;;;;4.67;0.70;;;1.50;94.70;;;;;;4990606;28;20471;-80
2023/03/28 02:06:16;;;;;;;3.83;0.70;;;1.50;94.80;;;;;;4982226;28;20149;-80
2023/03/28 02:08:45;;;;;;;1.63;0.53;;;1.50;94.80;;;;;;4968085;28;20038;-80
2023/03/28 02:11:34;;;;;;;1.70;0.60;;;1.50;94.80;;;;;;4947135;28;20042;-80
2023/03/28 02:14:25;;;;;;;3.10;0.90;;;1.60;94.90;;;;;;4983826;28;20052;-80
2023/03/28 02:17:20;;;;;;;2.27;0.53;;;1.60;94.80;;;;;;4991247;28;20050;-80
2023/03/28 02:20:11;;;;;;;1.77;0.40;;;1.60;94.80;;;;;;4999156;28;20085;-80
2023/03/28 02:23:38;;;;;;;3.27;0.70;;;1.50;94.80;;;;;;4970964;28;20529;-80
2023/03/28 02:26:19;;;;;;;2.53;0.70;;;1.50;94.90;;;;;;4960090;28;20582;-80
2023/03/28 02:29:00;;;;;;;1.90;0.50;;;1.50;94.90;;;;;;5004767;28;20046;-80
2023/03/28 02:31:37;;;;;;;3.20;0.77;;;1.50;94.90;;;;;;4996503;28;20049;-79
2023/03/28 02:34:04;;;;;;;2.63;0.50;;;1.50;95.00;;;;;;4996469;28;20290;-79
2023/03/28 02:36:46;;;;;;;2.53;0.43;;;1.50;95.00;;;;;;4980406;28;20134;-79
2023/03/28 02:40:07;;;;;;;2.10;0.40;;;1.40;95.00;;;;;;4999062;28;20450;-79
2023/03/28 02:42:41;;;;;;;1.30;0.30;;;1.40;95.10;;;;;;4961098;28;20084;-79
2023/03/28 02:45:39;;;;;;;1.70;0.50;;;1.30;95.10;;;;;;4999777;28;20046;-79
2023/03/28 02:48:18;;;;;;;1.50;0.40;;;1.30;95.10;;;;;;4995691;28;20045;-79
2023/03/28 02:50:56;;;;;;;1.20;0.30;;;1.30;95.20;;;;;;4996677;28;20405;-79
2023/03/28 02:53:33;;;;;;;1.50;0.33;;;1.30;95.20;;;;;;4980761;28;20068;-79
2023/03/28 02:56:11;;;;;;;1.43;0.40;;;1.30;95.30;;;;;;4999052;28;20054;-79
2023/03/28 02:59:29;;;;;;;2.00;0.53;;;1.30;95.30;;;;;;4998199;28;20058;-79
2023/03/28 03:01:56;;;;;;;1.00;0.20;;;1.20;95.30;;;;;;4996152;28;20164;-80
2023/03/28 03:04:23;;;;;;;0.83;0.30;;;1.20;95.30;;;;;;4980310;28;20045;-79
2023/03/28 03:06:51;;;;;;;1.37;0.40;;;1.20;95.30;;;;;;4996374;28;20498;-80
2023/03/28 03:09:18;;;;;;;1.43;0.30;;;1.20;95.40;;;;;;4980306;28;20044;-80
2023/03/28 03:11:45;;;;;;;1.73;0.40;;;1.20;95.40;;;;;;4996032;28;20050;-79
2023/03/28 03:14:12;;;;;;;0.53;0.23;;;1.20;95.60;;;;;;4995013;28;20398;-79
2023/03/28 03:16:41;;;;;;;0.93;0.30;;;1.20;95.40;;;;;;4996643;28;20177;-80
2023/03/28 03:19:09;;;;;;;3.30;0.30;;;1.10;95.40;;;;;;4996516;28;20042;-87
2023/03/28 03:21:36;;;;;;;1.87;0.40;;;1.10;95.40;;;;;;4997478;28;20125;-87
2023/03/28 03:24:04;;;;;;;1.07;0.30;;;1.10;95.50;;;;;;4997718;28;20049;-87
2023/03/28 03:26:31;;;;;;;1.30;0.50;;;1.10;95.50;;;;;;4965465;28;20034;-87
2023/03/28 03:29:02;;;;;;;1.17;0.30;;;1.00;95.50;;;;;;4992952;28;20046;-87
2023/03/28 03:31:31;;;;;;;1.03;0.30;;;1.00;95.50;;;;;;4997659;28;20096;-86
2023/03/28 03:34:13;;;;;;;1.25;0.50;;;1.00;95.60;;;;;;4999807;28;20049;-87
2023/03/28 03:36:45;;;;;;;;;;;1.00;95.60;;;;;;4997863;28;20164;-86
2023/03/28 03:39:12;;;;;;;2.23;0.50;;;0.90;95.60;;;;;;4992343;28;19921;-88
2023/03/28 03:41:40;;;;;;;3.53;0.33;;;0.90;95.60;;;;;;4953691;28;20042;-87
2023/03/28 03:44:06;;;;;;;1.93;0.33;;;0.90;95.60;;;;;;4981238;28;20057;-87
2023/03/28 03:46:35;;;;;;;1.90;0.57;;;0.90;95.60;;;;;;4997244;28;20038;-87
2023/03/28 03:49:02;;;;;;;1.93;0.40;;;0.90;95.60;;;;;;4965273;28;20463;-87
2023/03/28 03:51:29;;;;;;;3.40;0.40;;;0.90;95.90;;;;;;4997247;28;20054;-87
2023/03/28 03:53:59;;;;;;;2.17;0.57;;;0.90;95.60;;;;;;4982805;28;20166;-87
2023/03/28 03:56:35;;;;;;;0.70;0.20;;;0.90;95.70;;;;;;4997178;28;20046;-86
2023/03/28 03:59:02;;;;;;;2.30;0.40;;;0.90;95.70;;;;;;4965052;28;20391;-86
2023/03/28 04:01:31;;;;;;;1.03;0.20;;;0.90;95.70;;;;;;4965492;28;20046;-87
2023/03/28 04:04:24;;;;;;;1.47;0.27;;;0.90;95.70;;;;;;4983805;28;20051;-87
2023/03/28 04:07:16;;;;;;;1.20;0.30;;;0.80;95.70;;;;;;4963057;28;20056;-86
2023/03/28 04:09:46;;;;;;;1.10;0.40;;;0.80;95.80;;;;;;4963786;28;20133;-87
2023/03/28 04:12:14;;;;;;;0.83;0.20;;;0.80;95.80;;;;;;4985237;28;20084;-86
2023/03/28 04:14:47;;;;;;;0.53;0.20;;;0.80;95.80;;;;;;4998464;28;20050;-86
2023/03/28 04:17:33;;;;;;;0.50;0.27;;;0.80;95.80;;;;;;4986219;28;20092;-87
2023/03/28 04:20:12;;;;;;;1.43;0.40;;;0.80;95.80;;;;;;4976948;28;20078;-87
2023/03/28 04:23:04;;;;;;;1.10;0.40;;;0.80;95.80;;;;;;4996743;28;20057;-86
2023/03/28 04:25:32;;;;;;;1.13;0.37;;;0.70;95.80;;;;;;4965579;28;20168;-87
2023/03/28 04:28:15;;;;;;;1.77;0.40;;;0.70;95.80;;;;;;4991736;28;20061;-86
2023/03/28 04:31:03;;;;;;;1.13;0.37;;;0.70;95.90;;;;;;4970144;28;20118;-86
2023/03/28 04:33:44;;;;;;;2.20;0.40;;;0.70;95.90;;;;;;4980606;28;20517;-86
2023/03/28 04:36:17;;;;;;;1.02;0.30;;;0.70;95.90;;;;;;4981801;28;20069;-87
2023/03/28 04:38:57;;;;;;;1.03;0.40;;;0.70;95.90;;;;;;4980206;28;20050;-87
2023/03/28 04:41:44;;;;;;;2.10;0.33;;;0.60;95.90;;;;;;4995739;28;20052;-87
2023/03/28 04:44:23;;;;;;;2.63;0.47;;;0.60;96.00;;;;;;5011533;28;20056;-87
2023/03/28 04:46:58;;;;;;;0.77;0.40;;;0.60;96.00;;;;;;4998279;28;20046;-86
2023/03/28 04:49:26;;;;;;;1.43;0.50;;;0.60;96.00;;;;;;4985119;28;20045;-86
2023/03/28 04:51:54;;;;;;;1.60;0.60;;;0.60;96.00;;;;;;5000948;28;20100;-87
2023/03/28 04:54:22;;;;;;;1.83;0.57;;;0.60;96.00;;;;;;4965953;28;20047;-87
2023/03/28 04:57:03;;;;;;;2.00;0.40;;;0.60;96.00;;;;;;4974493;28;20066;-87
2023/03/28 04:59:39;;;;;;;1.87;0.50;;;0.60;96.10;;;;;;4986423;28;20461;-87
2023/03/28 05:02:06;;;;;;;1.27;0.30;;;0.60;96.10;;;;;;5012882;28;20383;-87
2023/03/28 05:04:41;;;;;;;2.43;0.40;;;0.60;96.10;;;;;;5000058;28;20042;-87
2023/03/28 05:07:09;;;;;;;1.90;0.53;;;0.50;96.30;;;;;;4983269;28;20049;-86
2023/03/28 05:09:37;;;;;;;2.30;0.47;;;0.60;96.10;;;;;;4983846;28;20038;-86
2023/03/28 05:12:04;;;;;;;0.97;0.80;;;0.50;96.00;;;;;;4970659;28;20050;-86
2023/03/28 05:14:35;;;;;;;0.73;0.40;;;0.60;96.10;;;;;;4984181;28;20046;-86
2023/03/28 05:17:11;;;;;;;1.30;0.40;;;0.60;96.10;;;;;;4985976;28;20056;-86
2023/03/28 05:19:54;;;;;;;1.47;0.50;;;0.50;96.10;;;;;;4960097;28;20065;-86
2023/03/28 05:22:24;;;;;;;0.90;0.40;;;0.50;96.10;;;;;;4967800;28;20045;-86
2023/03/28 05:24:55;;;;;;;3.10;0.63;;;0.50;96.10;;;;;;4983725;28;20096;-86
2023/03/28 05:27:22;;;;;;;1.80;0.53;;;0.60;96.10;;;;;;4951669;28;20062;-86
2023/03/28 05:29:49;;;;;;;2.63;0.70;;;0.50;96.10;;;;;;4982906;28;20044;-86
2023/03/28 05:32:17;;;;;;;2.50;0.50;;;0.50;96.40;;;;;;4979774;28;20061;-86
2023/03/28 05:34:45;;;;;;;1.10;0.40;;;0.50;96.40;;;;;;5005704;28;20049;-87
2023/03/28 05:37:12;;;;;;;1.47;0.50;;;0.60;96.10;;;;;;4999267;28;20070;-87
2023/03/28 05:39:50;;;;;;;1.57;0.47;;;0.60;96.10;;;;;;4993242;28;20045;-87
2023/03/28 05:42:18;;;;;;;1.27;0.80;;;0.60;96.10;;;;;;4981818;28;20129;-86
2023/03/28 05:44:45;;;;;;;1.37;0.30;;;0.60;96.10;;;;;;4987713;28;20514;-87
2023/03/28 05:47:30;;;;;;;1.30;0.50;;;0.60;96.40;;;;;;4981045;28;20136;-87
2023/03/28 05:49:58;;;;;;;1.70;0.20;;;0.60;96.10;;;;;;4982690;28;20050;-85
2023/03/28 05:52:25;;;;;;;1.37;0.50;;;0.70;96.40;;;;;;4967069;28;20106;-87
2023/03/28 05:54:56;;;;;;;2.47;0.60;;;0.70;96.10;;;;;;4998681;28;20042;-87
2023/03/28 05:57:25;;;;;;;1.63;0.73;;;0.80;96.10;;;;;;4967234;28;20042;-87
2023/03/28 05:59:53;;;;;;;3.27;0.77;;;0.80;96.10;;;;;;5007247;28;20038;-87
2023/03/28 06:02:23;;;;;;;1.93;0.70;;;0.90;96.00;;;;;;4964465;28;20065;-87
2023/03/28 06:04:56;;;;;;;1.67;0.67;;;0.90;96.00;;;;;;4974093;28;20073;-87
2023/03/28 06:07:25;;;;;;;3.43;0.70;;;0.90;96.10;;;;;;4999241;28;21673;-86
2023/03/28 06:10:10;;;;;;;1.20;0.43;;;1.00;95.90;;;;;;4984854;28;20100;-87
2023/03/28 06:12:39;;;;;;;1.03;0.50;;;1.00;95.90;;;;;;4975724;28;20046;-87
2023/03/28 06:18:48;;;;;;;1.50;0.50;;;1.20;95.80;;;;;;4999936;28;20083;-95
2023/03/28 06:21:18;;;;;;;1.30;0.53;;;1.30;95.80;;;;;;4998532;28;20049;-94
2023/03/28 06:23:46;;;;;;;2.77;0.40;;;1.40;95.70;;;;;;5001445;28;20046;-94
2023/03/28 06:26:25;;;;;;;3.33;0.83;;;1.50;95.70;;;;;;4985242;28;20042;-94
2023/03/28 06:28:52;;;;;;;2.97;0.80;;;1.60;95.60;;;;;;4998577;28;20141;-93
2023/03/28 06:31:32;;;;;;;1.73;0.50;;;1.70;95.50;;;;;;4999359;28;20053;-91
2023/03/28 06:33:59;;;;;;;1.33;0.50;;;1.80;95.40;;;;;;4989851;28;20045;-92
2023/03/28 06:36:27;;;;;;;2.17;0.40;;;1.90;95.30;;;;;;4999134;28;20062;-92
2023/03/28 06:38:57;;;;;;;1.33;0.37;;;2.00;95.30;;;;;;4977477;28;20053;-92
2023/03/28 06:41:26;;;;;;;2.17;0.87;;;2.10;95.50;;;;;;4980644;28;20038;-92
2023/03/28 06:43:54;;;;;;;3.33;1.10;;;2.10;95.20;;;;;;4989066;28;20057;-92
2023/03/28 06:46:40;;;;;;;3.80;1.67;;;2.20;95.20;;;;;;4972254;28;20074;-91
2023/03/28 06:49:07;;;;;;;3.37;1.53;;;2.20;95.10;;;;;;4963315;28;20061;-91
2023/03/28 06:51:54;;;;;;;3.27;1.57;;;2.30;95.10;;;;;;4982419;28;20109;-92
2023/03/28 06:54:21;;;;;;;4.70;1.40;;;2.40;95.10;;;;;;4946286;28;20073;-92
2023/03/28 06:56:49;;;;;;;4.90;1.70;;;2.40;95.00;;;;;;4960529;28;20140;-90
2023/03/28 06:59:16;;;;;;;3.97;1.77;;;2.50;94.90;;;;;;4947487;28;20057;-91
2023/03/28 07:01:49;;;;;;;4.47;1.63;;;2.60;94.90;;;;;;4978714;28;20042;-91
2023/03/28 07:04:21;;;;;;;4.23;1.40;;;2.70;94.80;;;;;;4963605;28;20049;-91
2023/03/28 07:06:49;;;;;;;2.77;1.13;;;2.80;94.80;;;;;;4962016;28;20053;-91
2023/03/28 07:09:16;;;;;;;3.40;1.23;;;2.90;94.70;;;;;;4978189;28;20065;-91
2023/03/28 07:11:53;;;;;;;2.65;1.35;;;3.10;94.70;;;;;;4963655;28;20050;-93
2023/03/28 07:14:22;;;;;;;4.25;1.55;;;3.20;94.60;;;;;;4978220;28;20046;-94
2023/03/28 07:16:49;;;;;;;4.60;1.60;;;3.40;94.50;;;;;;4978310;28;20050;-93
2023/03/28 07:19:16;;;;;;;4.87;1.53;;;3.50;94.40;;;;;;4970393;28;20050;-90
2023/03/28 07:21:46;;;;;;;4.63;1.60;;;3.70;94.20;;;;;;4963434;28;20125;-90
2023/03/28 07:24:13;;;;;;;5.18;1.75;;;3.80;94.10;;;;;;4974800;28;20502;-90
2023/03/28 07:26:50;;;;;;;5.93;1.48;;;4.00;94.00;;;;;;4964494;28;20042;-91
2023/03/28 07:29:45;;;;;;;5.47;2.13;;;4.10;93.90;;;;;;4970748;28;20106;-92
2023/03/28 07:32:13;;;;;;;3.10;1.60;;;4.10;93.70;;;;;;4974908;28;20105;-93
2023/03/28 07:34:44;;;;;;;5.32;1.90;;;4.10;93.70;;;;;;4964118;28;20188;-93
2023/03/28 07:37:20;;;;;;;3.47;1.60;;;4.10;93.80;;;;;;4970128;28;20057;-87
2023/03/28 07:40:06;;;;;;;6.07;1.70;;;4.10;93.70;;;;;;4955596;28;20046;-86
2023/03/28 07:42:33;;;;;;;5.97;1.38;;;4.10;93.80;;;;;;4948797;28;20048;-87
2023/03/28 07:45:00;;;;;;;3.70;1.57;;;4.10;93.80;;;;;;4994143;28;20053;-87
2023/03/28 07:47:29;;;;;;;3.50;1.52;;;4.10;93.80;;;;;;4984438;28;20800;-87
2023/03/28 07:49:59;;;;;;;4.20;1.35;;;4.10;93.90;;;;;;4984216;28;20038;-92
2023/03/28 07:52:27;;;;;;;4.60;1.67;;;4.10;93.90;;;;;;5001204;28;20049;-92
2023/03/28 07:54:55;;;;;;;4.03;1.25;;;4.10;93.90;;;;;;5000650;28;20117;-88
2023/03/28 07:57:22;;;;;;;2.55;1.30;;;4.20;93.90;;;;;;4982486;28;20054;-88
2023/03/28 07:59:56;;;;;;;4.25;1.52;;;4.30;93.80;;;;;;4964702;28;20128;-88
2023/03/28 08:02:24;;;;;;;3.35;1.20;;;4.40;93.80;;;;;;4977097;28;20054;-88
2023/03/28 08:04:52;;;;;;;4.35;1.10;;;4.50;93.90;;;;;;4977363;28;20165;-87
2023/03/28 08:07:24;;;;;;;3.07;1.27;;;4.60;93.60;;;;;;4963952;28;20089;-87
2023/03/28 08:09:52;;;;;;;4.45;1.52;;;4.80;93.40;;;;;;4987704;28;20037;-87
2023/03/28 08:12:28;;;;;;;3.97;1.67;;;4.90;93.30;;;;;;4977529;28;20061;-87
2023/03/28 08:14:55;;;;;;;4.28;2.15;;;5.00;93.20;;;;;;4998518;28;20050;-87
2023/03/28 08:17:23;;;;;;;5.25;2.40;;;5.10;93.00;;;;;;4989144;28;20042;-87
2023/03/28 08:19:52;;;;;;;3.53;1.85;;;5.20;92.90;;;;;;4986797;28;20434;-87
2023/03/28 08:22:19;;;;;;;6.70;2.67;;;5.20;92.70;;;;;;5002571;28;20052;-87
2023/03/28 08:24:53;;;;;;;4.72;2.20;;;5.40;92.60;;;;;;4966356;28;20097;-88
2023/03/28 08:27:22;;;;;;;4.47;1.92;;;5.50;92.60;;;;;;5005210;28;20046;-88
2023/03/28 08:30:00;;;;;;;4.97;1.83;;;5.50;92.50;;;;;;4978682;28;20080;-88
2023/03/28 08:32:29;;;;;;;5.97;2.33;;;5.60;92.40;;;;;;4976938;28;20046;-92
2023/03/28 08:34:56;;;;;;;5.90;2.78;;;5.70;92.30;;;;;;4968847;28;20046;-91
2023/03/28 08:37:26;;;;;;;4.15;2.17;;;5.70;92.10;;;;;;4970510;28;20050;-91
2023/03/28 08:39:56;;;;;;;7.40;2.42;;;5.80;92.00;;;;;;4979446;28;20092;-90
2023/03/28 08:42:45;;;;;;;5.40;2.55;;;5.90;91.80;;;;;;4985182;28;20056;-91
2023/03/28 08:45:27;;;;;;;5.72;2.17;;;6.10;91.50;;;;;;4984090;28;20041;-88
2023/03/28 08:48:16;;;;;;;7.22;2.45;;;6.20;91.40;;;;;;5001835;28;20050;-91
2023/03/28 08:50:53;;;;;;;8.65;3.08;;;6.30;91.00;;;;;;5006644;28;20053;-90
2023/03/28 08:53:42;;;;;;;7.07;2.53;;;6.40;90.40;;;;;;5000024;28;20050;-88
2023/03/28 08:56:14;;;;;;;5.35;2.03;;;6.40;90.00;;;;;;4981163;28;20143;-91
2023/03/28 08:59:05;;;;;;;4.20;1.80;;;6.40;90.30;;;;;;4965294;28;20046;-91
2023/03/28 09:01:34;;;;;;;4.50;1.55;;;6.50;90.00;;;;;;4964873;28;20042;-91
2023/03/28 09:04:02;;;;;;;4.85;1.48;;;6.50;90.00;;;;;;4981281;28;20065;-92
2023/03/28 09:06:42;;;;;;;5.45;1.42;;;6.60;89.70;;;;;;4949358;28;20042;-91
2023/03/28 09:09:27;;;;;;;5.75;1.30;;;6.70;89.90;;;;;;4965393;28;20047;-87
2023/03/28 09:12:38;;;;;;;5.40;1.70;;;6.70;89.40;;;;;;4996485;28;20050;-88
2023/03/28 09:15:15;;;;;;;4.32;1.42;;;6.70;88.20;;;;;;4999621;28;20520;-88
2023/03/28 09:18:14;;;;;;;3.28;1.25;;;6.80;88.10;;;;;;4987082;28;20050;-93
2023/03/28 09:20:53;;;;;;;6.72;1.63;;;6.90;88.20;;;;;;4998191;28;20518;-91
2023/03/28 09:24:02;;;;;;;4.75;1.38;;;7.00;88.10;;;;;;5013621;28;20046;-90
2023/03/28 09:26:40;;;;;;;4.28;1.30;;;7.10;87.00;;;;;;5000494;28;20085;-90
2023/03/28 09:29:18;;;;;;;3.55;0.80;;;7.20;87.40;;;;;;4999987;28;20454;-90
2023/03/28 09:31:50;;;;;;;4.20;1.15;;;7.20;87.00;;;;;;5002827;28;20038;-91
2023/03/28 09:34:26;;;;;;;3.90;1.00;;;7.30;86.50;;;;;;4984504;28;20073;-90
2023/03/28 09:42:10;;;;;;;5.95;1.13;;;7.40;84.90;;;;;;5016104;28;20069;-87
2023/03/28 09:45:06;;;;;;;3.35;1.00;;;7.50;83.70;;;;;;4999804;28;20045;-87
2023/03/28 09:47:52;;;;;;;2.95;1.10;;;7.40;82.40;;;;;;5010200;28;20183;-87
2023/03/28 09:50:26;;;;;;;2.58;0.95;;;7.30;81.50;;;;;;4982488;28;20129;-83
2023/03/28 09:52:57;;;;;;;4.07;1.48;;;7.40;81.70;;;;;;4972831;28;20421;-84
2023/03/28 09:55:30;;;;;;;6.43;1.50;;;7.50;81.40;;;;;;4990851;28;20052;-84
2023/03/28 09:58:09;;;;;;;5.75;1.42;;;7.70;81.00;;;;;;4990406;28;20129;-84
2023/03/28 10:01:44;;;;;;;3.20;0.90;;;7.70;80.50;;;;;;4984963;28;20053;-84
2023/03/28 10:04:27;;;;;;;4.13;1.13;;;8.00;81.00;;;;;;4984789;28;20049;-85
2023/03/28 10:07:42;;;;;;;5.30;1.38;;;8.20;79.50;;;;;;4990175;28;20046;-85
2023/03/28 10:10:31;;;;;;;4.07;1.02;;;8.20;78.80;;;;;;4986504;28;20133;-84
2023/03/28 10:13:04;;;;;;;2.67;1.35;;;8.20;78.50;;;;;;4956185;28;20053;-83
2023/03/28 10:15:41;;;;;;;3.90;1.23;;;8.20;76.60;;;;;;4991333;28;20112;-83
2023/03/28 10:18:46;;;;;;;3.67;1.20;;;8.20;76.40;;;;;;4988332;28;20041;-87
2023/03/28 10:21:30;;;;;;;4.40;1.50;;;8.20;76.40;;;;;;4982813;28;20053;-84
2023/03/28 10:24:10;;;;;;;2.67;1.17;;;8.20;76.20;;;;;;4981604;28;20052;-85
2023/03/28 10:26:38;;;;;;;4.53;1.10;;;8.30;75.30;;;;;;4980654;28;20098;-83
2023/03/28 10:29:07;;;;;;;3.53;1.80;;;8.40;75.80;;;;;;4947912;28;20517;-83
2023/03/28 10:31:38;;;;;;;3.15;1.20;;;8.50;74.90;;;;;;4960942;28;20050;-83
2023/03/28 10:34:32;;;;;;;3.15;1.10;;;8.50;74.00;;;;;;4999855;28;20046;-85
2023/03/28 10:37:29;;;;;;;2.40;0.88;;;8.60;74.00;;;;;;4970216;28;20058;-86
2023/03/28 10:40:16;;;;;;;2.60;0.82;;;8.60;73.40;;;;;;4993755;28;20447;-83
2023/03/28 10:43:14;;;;;;;3.03;0.80;;;8.70;74.40;;;;;;4999728;28;20465;-84
2023/03/28 10:45:49;;;;;;;2.17;1.08;;;8.80;74.90;;;;;;5004047;28;20057;-83
2023/03/28 10:48:30;;;;;;;2.15;0.73;;;8.90;75.50;;;;;;5001925;28;20046;-84
2023/03/28 10:51:07;;;;;;;3.60;1.33;;;9.00;74.60;;;;;;4980751;28;20557;-84
2023/03/28 10:53:36;;;;;;;;;;;9.00;73.40;;;;;;4985614;28;20046;-83
2023/03/28 10:56:28;;;;;;;6.40;1.65;;;8.90;72.90;;;;;;4996484;28;19926;-83
2023/03/28 10:59:20;;;;;;;5.13;1.30;;;8.80;70.70;;;;;;4980147;28;20046;-83
2023/03/28 11:02:23;;;;;;;2.55;1.00;;;8.80;72.20;;;;;;4996019;28;20046;-84
2023/03/28 11:05:42;;;;;;;4.15;1.25;;;8.80;71.80;;;;;;4993849;28;20457;-84
2023/03/28 11:08:26;;;;;;;3.63;0.98;;;8.90;72.30;;;;;;4882705;28;20070;-84
2023/03/28 11:11:34;;;;;;;1.98;1.00;;;9.00;71.60;;;;;;4981273;28;20065;-84
2023/03/28 11:14:24;;;;;;;4.72;1.15;;;9.10;72.40;;;;;;4994161;28;20078;-84
2023/03/28 11:17:19;;;;;;;3.55;1.02;;;9.20;72.40;;;;;;4972922;28;20048;-85
2023/03/28 11:20:17;;;;;;;4.13;0.88;;;9.30;72.00;;;;;;4993191;28;20387;-84
2023/03/28 11:23:16;;;;;;;1.23;0.50;;;9.40;72.60;;;;;;4980364;28;20053;-85
2023/03/28 11:26:13;;;;;;;2.15;0.80;;;9.40;72.70;;;;;;4960869;28;20042;-86
2023/03/28 11:30:04;;;;;;;2.33;0.90;;;9.40;70.50;;;;;;4986640;28;20438;-89
2023/03/28 11:32:45;;;;;;;1.63;0.70;;;9.20;70.00;;;;;;4934941;29;20048;-88
2023/03/28 11:35:15;;;;;;;2.97;0.70;;;9.20;70.40;;;;;;4980807;28;20104;-93
2023/03/28 11:37:59;;;;;;;3.63;0.60;;;9.30;70.00;;;;;;4996575;28;20048;-88
2023/03/28 11:40:52;;;;;;;4.40;0.90;;;9.30;70.40;;;;;;4986297;28;20054;-93
2023/03/28 11:43:57;;;;;;;4.40;1.42;;;9.30;68.30;;;;;;4999586;28;20050;-88
2023/03/28 11:46:41;;;;;;;3.55;1.13;;;9.20;68.70;;;;;;4981645;28;20048;-87
2023/03/28 11:49:19;;;;;;;1.85;0.65;;;9.30;68.70;;;;;;4979850;28;20499;-88
2023/03/28 11:51:51;;;;;;;3.00;0.60;;;9.40;69.60;;;;;;4996017;28;20054;-88
2023/03/28 11:54:25;;;;;;;3.10;0.70;;;9.60;69.80;;;;;;4989350;28;20054;-88
2023/03/28 11:57:14;;;;;;;4.32;0.95;;;9.80;68.90;;;;;;4985943;28;20064;-89
2023/03/28 12:00:29;;;;;;;1.90;0.52;;;9.80;67.00;;;;;;5007791;28;20061;-89
2023/03/28 12:03:29;;;;;;;2.17;0.52;;;9.80;67.40;;;;;;5005534;28;20067;-90
2023/03/28 12:06:04;;;;;;;1.98;0.50;;;10.00;67.90;;;;;;4980906;28;20046;-91
2023/03/28 12:08:48;;;;;;;2.95;1.00;;;10.20;68.20;;;;;;4997317;28;20486;-90
2023/03/28 12:11:24;;;;;;;;;;;10.30;67.10;;;;;;4999731;28;20042;-90
2023/03/28 12:14:21;;;;;;;1.92;0.47;;;10.40;67.60;;;;;;4994289;28;19921;-89
2023/03/28 12:16:51;;;;;;;4.50;0.70;;;10.50;68.10;;;;;;4981113;28;20419;-90
2023/03/28 12:19:41;;;;;;;1.75;0.47;;;10.50;67.00;;;;;;4965207;28;20046;-90
2023/03/28 12:22:40;;;;;;;4.20;0.50;;;10.60;67.50;;;;;;4952996;28;20447;-88
2023/03/28 12:25:10;;;;;;;2.30;0.63;;;10.70;67.00;;;;;;5002009;28;20050;-89
2023/03/28 12:27:45;;;;;;;3.20;0.80;;;10.70;65.50;;;;;;4997051;28;20053;-89
2023/03/28 12:30:41;;;;;;;3.17;0.80;;;10.70;65.60;;;;;;4988014;28;20506;-92
2023/03/28 12:33:37;;;;;;;3.85;0.80;;;10.70;65.50;;;;;;4990222;28;20047;-91
2023/03/28 12:36:20;;;;;;;3.83;0.93;;;10.80;65.50;;;;;;4974368;28;20065;-88
2023/03/28 12:39:11;;;;;;;2.47;0.80;;;10.80;64.90;;;;;;5003246;28;20510;-88
2023/03/28 12:41:41;;;;;;;1.20;0.50;;;10.90;64.60;;;;;;4980045;28;20046;-87
2023/03/28 12:44:35;;;;;;;2.60;0.63;;;10.90;65.00;;;;;;5005824;28;20525;-88
2023/03/28 12:47:14;;;;;;;1.73;0.50;;;11.00;65.30;;;;;;4996802;28;20132;-91
2023/03/28 12:49:49;;;;;;;2.90;0.70;;;11.10;65.00;;;;;;4996412;28;20073;-89
2023/03/28 12:52:30;;;;;;;1.48;0.30;;;11.10;65.90;;;;;;4995650;28;20050;-90
2023/03/28 12:55:26;;;;;;;5.40;0.77;;;11.20;66.10;;;;;;4996326;28;20046;-90
2023/03/28 12:58:23;;;;;;;2.58;0.55;;;11.30;66.40;;;;;;4994281;28;20074;-91
2023/03/28 13:01:11;;;;;;;1.88;0.60;;;11.40;66.20;;;;;;5002381;28;20090;-91
2023/03/28 13:04:24;;;;;;;3.58;0.65;;;11.30;65.80;;;;;;5023281;28;20056;-92
2023/03/28 13:07:46;;;;;;;4.38;1.65;;;11.00;64.60;;;;;;4992082;28;20076;-89
2023/03/28 13:10:41;;;;;;;3.72;0.98;;;10.70;63.30;;;;;;4978368;28;20053;-88
2023/03/28 13:13:29;;;;;;;3.58;1.02;;;10.50;63.60;;;;;;4997861;28;20057;-90
2023/03/28 13:16:12;;;;;;;2.92;0.90;;;10.60;64.40;;;;;;4952453;28;20104;-89
2023/03/28 13:19:05;;;;;;;4.18;1.10;;;10.70;63.70;;;;;;5004581;28;20077;-91
2023/03/28 13:21:55;;;;;;;3.50;1.10;;;10.80;64.10;;;;;;5000606;28;20042;-92
2023/03/28 13:24:34;;;;;;;2.60;1.13;;;10.90;62.60;;;;;;4988451;28;20072;-93
2023/03/28 13:27:26;;;;;;;3.97;1.38;;;11.00;62.00;;;;;;4987156;28;20045;-92
2023/03/28 13:30:13;;;;;;;4.25;1.50;;;11.00;60.90;;;;;;5006574;28;20077;-88
2023/03/28 13:32:47;;;;;;;2.85;1.02;;;10.90;60.10;;;;;;5004075;28;20057;-89
2023/03/28 13:35:48;;;;;;;5.85;1.63;;;10.70;60.30;;;;;;5000141;28;20557;-89
2023/03/28 13:38:28;;;;;;;4.53;1.23;;;10.40;60.30;;;;;;4993596;28;20053;-91
2023/03/28 13:41:08;;;;;;;2.88;1.00;;;10.30;61.40;;;;;;4998943;28;20046;-90
2023/03/28 13:43:45;;;;;;;3.83;0.83;;;10.20;62.00;;;;;;5006021;28;20070;-91
2023/03/28 13:46:21;;;;;;;1.58;1.05;;;10.20;62.30;;;;;;5005191;28;20136;-88
2023/03/28 13:53:42;;;;;;;3.60;0.73;;;10.20;62.30;;;;;;4997040;28;20105;-93
2023/03/28 13:56:14;;;;;;;4.55;1.20;;;10.20;62.50;;;;;;4997686;28;20052;-90
2023/03/28 13:58:49;;;;;;;4.18;1.10;;;10.10;62.80;;;;;;4997083;28;20050;-90
2023/03/28 14:01:45;;;;;;;2.67;0.80;;;10.20;62.30;;;;;;5010774;28;20125;-89
2023/03/28 14:04:23;;;;;;;3.90;1.38;;;10.30;62.10;;;;;;4995741;28;20045;-91
2023/03/28 14:06:52;;;;;;;3.13;1.08;;;10.40;62.00;;;;;;4989425;28;20048;-89
2023/03/28 14:13:59;;;;;;;3.80;1.00;;;10.70;61.30;;;;;;4917779;29;20168;-87